sensor_id;sensor_type;location;lat;lon;timestamp;pressure;altitude;pressure_sealevel;temperature;humidity
6090;BME280;3073;42.660;23.316;2023-04-09T00:01:02;94680.50;;;19.60;49.13
6090;BME280;3073;42.660;23.316;2023-04-09T00:03:29;94687.41;;;19.92;48.52
6090;BME280;3073;42.660;23.316;2023-04-09T00:05:56;94680.91;;;19.08;50.35
6090;BME280;3073;42.660;23.316;2023-04-09T00:08:23;94684.84;;;18.12;51.81
6090;BME280;3073;42.660;23.316;2023-04-09T00:10:50;94691.56;;;19.20;49.83
6090;BME280;3073;42.660;23.316;2023-04-09T00:13:19;94689.34;;;19.13;49.81
6090;BME280;3073;42.660;23.316;2023-04-09T00:15:46;94689.03;;;20.01;48.68
6090;BME280;3073;42.660;23.316;2023-04-09T00:18:14;94693.84;;;20.58;47.46
6090;BME280;3073;42.660;23.316;2023-04-09T00:20:42;94692.53;;;20.69;47.14
6090;BME280;3073;42.660;23.316;2023-04-09T00:23:09;94680.75;;;21.07;46.42
6090;BME280;3073;42.660;23.316;2023-04-09T00:25:36;94686.38;;;21.23;46.18
6090;BME280;3073;42.660;23.316;2023-04-09T00:28:03;94685.50;;;21.36;45.94
6090;BME280;3073;42.660;23.316;2023-04-09T00:30:31;94681.13;;;21.14;46.35
6090;BME280;3073;42.660;23.316;2023-04-09T00:32:58;94681.31;;;21.18;45.89
6090;BME280;3073;42.660;23.316;2023-04-09T00:35:25;94682.22;;;20.99;45.83
6090;BME280;3073;42.660;23.316;2023-04-09T00:37:52;94689.22;;;19.50;47.19
6090;BME280;3073;42.660;23.316;2023-04-09T00:40:19;94689.09;;;20.24;47.29
6090;BME280;3073;42.660;23.316;2023-04-09T00:42:45;94691.50;;;20.34;46.43
6090;BME280;3073;42.660;23.316;2023-04-09T00:45:13;94698.00;;;20.45;46.68
6090;BME280;3073;42.660;23.316;2023-04-09T00:47:41;94691.31;;;20.30;46.24
6090;BME280;3073;42.660;23.316;2023-04-09T00:50:10;94686.06;;;20.80;46.31
6090;BME280;3073;42.660;23.316;2023-04-09T00:52:37;94682.00;;;20.65;45.92
6090;BME280;3073;42.660;23.316;2023-04-09T00:55:05;94686.06;;;20.58;46.34
6090;BME280;3073;42.660;23.316;2023-04-09T00:57:32;94689.59;;;20.12;46.14
6090;BME280;3073;42.660;23.316;2023-04-09T00:59:59;94699.03;;;18.14;51.48
6090;BME280;3073;42.660;23.316;2023-04-09T01:02:28;94689.81;;;19.47;49.02
6090;BME280;3073;42.660;23.316;2023-04-09T01:04:57;94688.91;;;20.34;47.17
6090;BME280;3073;42.660;23.316;2023-04-09T01:07:34;94693.59;;;20.32;47.18
6090;BME280;3073;42.660;23.316;2023-04-09T01:10:11;94699.41;;;19.74;48.00
6090;BME280;3073;42.660;23.316;2023-04-09T01:12:48;94694.25;;;20.73;46.21
6090;BME280;3073;42.660;23.316;2023-04-09T01:15:22;94696.69;;;20.92;45.86
6090;BME280;3073;42.660;23.316;2023-04-09T01:17:55;94701.75;;;20.39;46.42
6090;BME280;3073;42.660;23.316;2023-04-09T01:20:31;94702.84;;;18.78;49.36
6090;BME280;3073;42.660;23.316;2023-04-09T01:23:13;94699.59;;;18.30;50.46
6090;BME280;3073;42.660;23.316;2023-04-09T01:25:58;94700.63;;;19.03;49.47
6090;BME280;3073;42.660;23.316;2023-04-09T01:28:32;94702.34;;;18.57;49.99
6090;BME280;3073;42.660;23.316;2023-04-09T01:31:01;94706.47;;;18.16;51.09
6090;BME280;3073;42.660;23.316;2023-04-09T01:33:30;94699.88;;;18.47;50.73
6090;BME280;3073;42.660;23.316;2023-04-09T01:35:57;94705.34;;;19.61;48.37
6090;BME280;3073;42.660;23.316;2023-04-09T01:38:25;94708.03;;;20.11;47.40
6090;BME280;3073;42.660;23.316;2023-04-09T01:40:54;94704.56;;;20.29;47.13
6090;BME280;3073;42.660;23.316;2023-04-09T01:43:23;94699.47;;;21.18;45.35
6090;BME280;3073;42.660;23.316;2023-04-09T01:45:52;94695.69;;;21.24;45.34
6090;BME280;3073;42.660;23.316;2023-04-09T01:48:20;94702.28;;;21.30;44.86
6090;BME280;3073;42.660;23.316;2023-04-09T01:50:48;94702.44;;;21.25;44.94
6090;BME280;3073;42.660;23.316;2023-04-09T01:53:16;94705.50;;;21.35;44.53
6090;BME280;3073;42.660;23.316;2023-04-09T01:55:43;94695.13;;;21.35;44.55
6090;BME280;3073;42.660;23.316;2023-04-09T01:58:10;94700.91;;;21.32;44.58
6090;BME280;3073;42.660;23.316;2023-04-09T02:00:39;94698.13;;;21.20;44.94
6090;BME280;3073;42.660;23.316;2023-04-09T02:03:16;94703.94;;;20.45;45.45
6090;BME280;3073;42.660;23.316;2023-04-09T02:05:45;94707.38;;;20.90;44.75
6090;BME280;3073;42.660;23.316;2023-04-09T02:08:19;94697.13;;;20.72;45.08
6090;BME280;3073;42.660;23.316;2023-04-09T02:10:50;94701.59;;;20.93;45.05
6090;BME280;3073;42.660;23.316;2023-04-09T02:13:21;94708.19;;;20.99;45.01
6090;BME280;3073;42.660;23.316;2023-04-09T02:15:49;94704.78;;;20.90;45.23
6090;BME280;3073;42.660;23.316;2023-04-09T02:18:25;94702.34;;;20.22;45.89
6090;BME280;3073;42.660;23.316;2023-04-09T02:20:53;94705.09;;;20.53;45.85
6090;BME280;3073;42.660;23.316;2023-04-09T02:23:20;94697.00;;;20.68;45.21
6090;BME280;3073;42.660;23.316;2023-04-09T02:25:48;94699.69;;;20.63;45.11
6090;BME280;3073;42.660;23.316;2023-04-09T02:28:15;94691.72;;;20.82;45.03
6090;BME280;3073;42.660;23.316;2023-04-09T02:30:41;94699.34;;;21.00;44.64
6090;BME280;3073;42.660;23.316;2023-04-09T02:33:08;94701.75;;;20.75;45.35
6090;BME280;3073;42.660;23.316;2023-04-09T02:35:37;94699.50;;;19.96;46.26
6090;BME280;3073;42.660;23.316;2023-04-09T02:38:03;94696.91;;;20.10;45.78
6090;BME280;3073;42.660;23.316;2023-04-09T02:40:30;94692.50;;;20.60;45.12
6090;BME280;3073;42.660;23.316;2023-04-09T02:42:57;94692.47;;;21.18;44.55
6090;BME280;3073;42.660;23.316;2023-04-09T02:45:24;94689.69;;;21.15;44.31
6090;BME280;3073;42.660;23.316;2023-04-09T02:47:51;94692.75;;;21.17;44.24
6090;BME280;3073;42.660;23.316;2023-04-09T02:50:18;94690.44;;;21.15;43.98
6090;BME280;3073;42.660;23.316;2023-04-09T02:52:47;94682.97;;;21.14;44.16
6090;BME280;3073;42.660;23.316;2023-04-09T02:55:13;94692.66;;;20.86;44.37
6090;BME280;3073;42.660;23.316;2023-04-09T02:57:40;94683.22;;;20.45;44.85
6090;BME280;3073;42.660;23.316;2023-04-09T03:00:09;94678.81;;;20.90;44.41
6090;BME280;3073;42.660;23.316;2023-04-09T03:02:36;94686.75;;;20.72;44.56
6090;BME280;3073;42.660;23.316;2023-04-09T03:05:04;94689.19;;;20.90;44.15
6090;BME280;3073;42.660;23.316;2023-04-09T03:07:31;94684.91;;;20.64;44.50
6090;BME280;3073;42.660;23.316;2023-04-09T03:09:59;94681.75;;;20.75;44.15
6090;BME280;3073;42.660;23.316;2023-04-09T03:12:26;94679.25;;;20.84;44.23
6090;BME280;3073;42.660;23.316;2023-04-09T03:14:53;94678.94;;;20.63;44.45
6090;BME280;3073;42.660;23.316;2023-04-09T03:17:20;94680.47;;;20.64;44.39
6090;BME280;3073;42.660;23.316;2023-04-09T03:19:50;94684.47;;;20.48;44.06
6090;BME280;3073;42.660;23.316;2023-04-09T03:22:17;94687.00;;;18.98;46.44
6090;BME280;3073;42.660;23.316;2023-04-09T03:24:43;94689.78;;;20.16;44.88
6090;BME280;3073;42.660;23.316;2023-04-09T03:27:12;94685.84;;;20.32;44.45
6090;BME280;3073;42.660;23.316;2023-04-09T03:29:39;94682.66;;;20.35;44.46
6090;BME280;3073;42.660;23.316;2023-04-09T03:32:06;94691.13;;;20.13;44.58
6090;BME280;3073;42.660;23.316;2023-04-09T03:34:32;94690.69;;;19.97;45.00
6090;BME280;3073;42.660;23.316;2023-04-09T03:36:59;94683.34;;;20.13;44.95
6090;BME280;3073;42.660;23.316;2023-04-09T03:39:26;94686.75;;;19.86;45.21
6090;BME280;3073;42.660;23.316;2023-04-09T03:41:55;94687.69;;;20.18;44.98
6090;BME280;3073;42.660;23.316;2023-04-09T03:44:23;94678.97;;;20.00;44.97
6090;BME280;3073;42.660;23.316;2023-04-09T03:46:50;94688.84;;;19.98;45.17
6090;BME280;3073;42.660;23.316;2023-04-09T03:49:17;94684.16;;;20.00;44.72
6090;BME280;3073;42.660;23.316;2023-04-09T03:51:44;94695.94;;;19.65;45.75
6090;BME280;3073;42.660;23.316;2023-04-09T03:54:11;94695.38;;;19.82;45.47
6090;BME280;3073;42.660;23.316;2023-04-09T03:56:38;94696.00;;;19.00;46.60
6090;BME280;3073;42.660;23.316;2023-04-09T03:59:05;94699.50;;;19.23;46.18
6090;BME280;3073;42.660;23.316;2023-04-09T04:01:33;94701.09;;;19.51;45.69
6090;BME280;3073;42.660;23.316;2023-04-09T04:04:00;94697.59;;;19.61;45.63
6090;BME280;3073;42.660;23.316;2023-04-09T04:06:27;94699.78;;;19.68;45.42
6090;BME280;3073;42.660;23.316;2023-04-09T04:08:54;94705.16;;;19.85;45.09
6090;BME280;3073;42.660;23.316;2023-04-09T04:11:21;94704.78;;;19.91;45.26
6090;BME280;3073;42.660;23.316;2023-04-09T04:13:48;94700.94;;;19.75;45.39
6090;BME280;3073;42.660;23.316;2023-04-09T04:16:22;94698.25;;;19.67;45.82
6090;BME280;3073;42.660;23.316;2023-04-09T04:18:50;94694.44;;;19.64;45.72
6090;BME280;3073;42.660;23.316;2023-04-09T04:21:17;94698.50;;;19.51;45.97
6090;BME280;3073;42.660;23.316;2023-04-09T04:23:44;94702.63;;;18.74;47.41
6090;BME280;3073;42.660;23.316;2023-04-09T04:26:11;94697.56;;;18.45;48.11
6090;BME280;3073;42.660;23.316;2023-04-09T04:28:38;94700.03;;;18.56;48.07
6090;BME280;3073;42.660;23.316;2023-04-09T04:31:06;94702.81;;;18.40;48.42
6090;BME280;3073;42.660;23.316;2023-04-09T04:33:34;94697.72;;;17.69;50.01
6090;BME280;3073;42.660;23.316;2023-04-09T04:36:07;94700.53;;;18.15;49.28
6090;BME280;3073;42.660;23.316;2023-04-09T04:38:35;94708.69;;;18.83;48.00
6090;BME280;3073;42.660;23.316;2023-04-09T04:41:02;94699.47;;;18.21;48.82
6090;BME280;3073;42.660;23.316;2023-04-09T04:43:29;94695.13;;;17.74;49.29
6090;BME280;3073;42.660;23.316;2023-04-09T04:45:57;94694.22;;;17.60;50.24
6090;BME280;3073;42.660;23.316;2023-04-09T04:48:24;94709.41;;;18.09;49.16
6090;BME280;3073;42.660;23.316;2023-04-09T04:50:56;94702.38;;;17.43;50.45
6090;BME280;3073;42.660;23.316;2023-04-09T04:53:25;94706.41;;;17.78;50.11
6090;BME280;3073;42.660;23.316;2023-04-09T04:55:52;94695.06;;;17.98;50.49
6090;BME280;3073;42.660;23.316;2023-04-09T04:58:19;94699.94;;;19.12;48.59
6090;BME280;3073;42.660;23.316;2023-04-09T05:00:46;94695.69;;;18.32;49.29
6090;BME280;3073;42.660;23.316;2023-04-09T05:03:13;94700.56;;;18.34;49.48
6090;BME280;3073;42.660;23.316;2023-04-09T05:05:40;94702.41;;;18.71;48.84
6090;BME280;3073;42.660;23.316;2023-04-09T05:08:07;94705.34;;;19.61;47.47
6090;BME280;3073;42.660;23.316;2023-04-09T05:10:36;94700.84;;;18.32;48.87
6090;BME280;3073;42.660;23.316;2023-04-09T05:13:03;94712.47;;;18.72;48.88
6090;BME280;3073;42.660;23.316;2023-04-09T05:15:30;94705.78;;;19.03;48.31
6090;BME280;3073;42.660;23.316;2023-04-09T05:17:57;94710.88;;;19.41;47.59
6090;BME280;3073;42.660;23.316;2023-04-09T05:20:26;94715.09;;;18.86;48.58
6090;BME280;3073;42.660;23.316;2023-04-09T05:22:53;94717.56;;;18.77;48.77
6090;BME280;3073;42.660;23.316;2023-04-09T05:25:20;94714.63;;;18.65;49.12
6090;BME280;3073;42.660;23.316;2023-04-09T05:27:48;94712.72;;;18.33;49.42
6090;BME280;3073;42.660;23.316;2023-04-09T05:30:15;94711.72;;;18.11;50.16
6090;BME280;3073;42.660;23.316;2023-04-09T05:32:42;94716.50;;;18.41;49.07
6090;BME280;3073;42.660;23.316;2023-04-09T05:35:09;94713.53;;;18.71;48.99
6090;BME280;3073;42.660;23.316;2023-04-09T05:37:36;94710.13;;;18.33;49.67
6090;BME280;3073;42.660;23.316;2023-04-09T05:40:04;94718.56;;;19.46;48.43
6090;BME280;3073;42.660;23.316;2023-04-09T05:42:31;94724.38;;;19.06;48.48
6090;BME280;3073;42.660;23.316;2023-04-09T05:44:59;94726.47;;;19.03;48.22
6090;BME280;3073;42.660;23.316;2023-04-09T05:47:27;94716.13;;;17.86;50.04
6090;BME280;3073;42.660;23.316;2023-04-09T05:49:55;94717.31;;;19.25;47.98
6090;BME280;3073;42.660;23.316;2023-04-09T05:52:22;94723.31;;;17.89;50.13
6090;BME280;3073;42.660;23.316;2023-04-09T05:54:49;94716.28;;;18.93;48.43
6090;BME280;3073;42.660;23.316;2023-04-09T05:57:15;94719.91;;;19.57;47.62
6090;BME280;3073;42.660;23.316;2023-04-09T05:59:42;94717.25;;;18.97;48.52
6090;BME280;3073;42.660;23.316;2023-04-09T06:02:11;94711.69;;;19.82;46.99
6090;BME280;3073;42.660;23.316;2023-04-09T06:04:38;94717.03;;;19.72;47.62
6090;BME280;3073;42.660;23.316;2023-04-09T06:07:05;94717.81;;;20.00;46.16
6090;BME280;3073;42.660;23.316;2023-04-09T06:09:32;94714.50;;;20.49;45.76
6090;BME280;3073;42.660;23.316;2023-04-09T06:11:59;94707.22;;;21.40;44.06
6090;BME280;3073;42.660;23.316;2023-04-09T06:14:26;94714.50;;;20.49;44.97
6090;BME280;3073;42.660;23.316;2023-04-09T06:16:53;94717.78;;;21.74;42.95
6090;BME280;3073;42.660;23.316;2023-04-09T06:19:22;94722.03;;;20.95;43.65
6090;BME280;3073;42.660;23.316;2023-04-09T06:21:49;94713.03;;;21.37;42.92
6090;BME280;3073;42.660;23.316;2023-04-09T06:24:16;94717.81;;;21.52;42.99
6090;BME280;3073;42.660;23.316;2023-04-09T06:26:43;94718.13;;;21.81;42.26
6090;BME280;3073;42.660;23.316;2023-04-09T06:29:10;94714.16;;;21.53;42.58
6090;BME280;3073;42.660;23.316;2023-04-09T06:31:37;94714.00;;;21.05;42.65
6090;BME280;3073;42.660;23.316;2023-04-09T06:34:04;94717.03;;;20.40;43.53
6090;BME280;3073;42.660;23.316;2023-04-09T06:36:32;94719.81;;;22.34;40.42
6090;BME280;3073;42.660;23.316;2023-04-09T06:39:02;94725.09;;;23.66;38.68
6090;BME280;3073;42.660;23.316;2023-04-09T06:41:28;94730.06;;;23.88;38.87
6090;BME280;3073;42.660;23.316;2023-04-09T06:43:57;94727.81;;;25.07;36.23
6090;BME280;3073;42.660;23.316;2023-04-09T06:46:24;94722.28;;;23.07;38.61
6090;BME280;3073;42.660;23.316;2023-04-09T06:48:51;94717.59;;;22.01;39.76
6090;BME280;3073;42.660;23.316;2023-04-09T06:51:18;94732.69;;;21.91;40.61
6090;BME280;3073;42.660;23.316;2023-04-09T06:53:46;94728.78;;;22.19;39.91
6090;BME280;3073;42.660;23.316;2023-04-09T06:56:14;94725.69;;;22.08;39.85
6090;BME280;3073;42.660;23.316;2023-04-09T06:58:41;94720.66;;;22.03;39.92
6090;BME280;3073;42.660;23.316;2023-04-09T07:01:08;94733.19;;;21.40;41.16
6090;BME280;3073;42.660;23.316;2023-04-09T07:03:35;94731.91;;;21.29;40.61
6090;BME280;3073;42.660;23.316;2023-04-09T07:06:01;94726.47;;;20.94;41.56
6090;BME280;3073;42.660;23.316;2023-04-09T07:08:28;94727.75;;;22.46;39.93
6090;BME280;3073;42.660;23.316;2023-04-09T07:10:57;94729.66;;;22.71;39.85
6090;BME280;3073;42.660;23.316;2023-04-09T07:13:24;94734.78;;;23.40;38.29
6090;BME280;3073;42.660;23.316;2023-04-09T07:15:51;94734.25;;;20.59;41.02
6090;BME280;3073;42.660;23.316;2023-04-09T07:18:17;94734.31;;;22.18;39.92
6090;BME280;3073;42.660;23.316;2023-04-09T07:20:44;94734.19;;;23.26;38.38
6090;BME280;3073;42.660;23.316;2023-04-09T07:23:11;94736.44;;;24.37;37.69
6090;BME280;3073;42.660;23.316;2023-04-09T07:25:38;94735.03;;;24.40;36.77
6090;BME280;3073;42.660;23.316;2023-04-09T07:28:06;94723.53;;;25.81;35.34
6090;BME280;3073;42.660;23.316;2023-04-09T07:30:33;94736.41;;;23.70;36.68
6090;BME280;3073;42.660;23.316;2023-04-09T07:33:00;94737.59;;;22.66;38.07
6090;BME280;3073;42.660;23.316;2023-04-09T07:35:27;94728.69;;;22.58;37.64
6090;BME280;3073;42.660;23.316;2023-04-09T07:37:54;94738.69;;;24.68;35.57
6090;BME280;3073;42.660;23.316;2023-04-09T07:40:21;94735.00;;;23.81;36.19
6090;BME280;3073;42.660;23.316;2023-04-09T07:42:48;94726.28;;;22.96;37.00
6090;BME280;3073;42.660;23.316;2023-04-09T07:45:17;94726.38;;;22.40;37.75
6090;BME280;3073;42.660;23.316;2023-04-09T07:47:43;94731.25;;;23.53;36.38
6090;BME280;3073;42.660;23.316;2023-04-09T07:50:11;94745.41;;;24.98;34.88
6090;BME280;3073;42.660;23.316;2023-04-09T07:52:37;94743.34;;;25.04;34.82
6090;BME280;3073;42.660;23.316;2023-04-09T07:55:05;94750.84;;;25.05;35.09
6090;BME280;3073;42.660;23.316;2023-04-09T07:57:32;94748.78;;;24.28;35.94
6090;BME280;3073;42.660;23.316;2023-04-09T07:59:59;94744.03;;;26.15;34.13
6090;BME280;3073;42.660;23.316;2023-04-09T08:02:28;94758.25;;;24.33;35.48
6090;BME280;3073;42.660;23.316;2023-04-09T08:04:55;94764.19;;;23.57;36.17
6090;BME280;3073;42.660;23.316;2023-04-09T08:07:22;94751.88;;;24.72;35.95
6090;BME280;3073;42.660;23.316;2023-04-09T08:09:49;94762.81;;;24.65;35.18
6090;BME280;3073;42.660;23.316;2023-04-09T08:12:16;94738.50;;;21.13;39.47
6090;BME280;3073;42.660;23.316;2023-04-09T08:14:43;94755.38;;;21.24;39.74
6090;BME280;3073;42.660;23.316;2023-04-09T08:17:10;94753.56;;;23.80;36.38
6090;BME280;3073;42.660;23.316;2023-04-09T08:19:39;94762.13;;;24.27;35.90
6090;BME280;3073;42.660;23.316;2023-04-09T08:22:05;94761.25;;;24.14;36.00
6090;BME280;3073;42.660;23.316;2023-04-09T08:24:36;94752.25;;;22.62;37.44
6090;BME280;3073;42.660;23.316;2023-04-09T08:27:04;94760.56;;;24.84;35.80
6090;BME280;3073;42.660;23.316;2023-04-09T08:29:31;94749.84;;;23.89;36.01
6090;BME280;3073;42.660;23.316;2023-04-09T08:31:59;94751.91;;;24.13;36.16
6090;BME280;3073;42.660;23.316;2023-04-09T08:34:26;94761.47;;;22.85;37.03
6090;BME280;3073;42.660;23.316;2023-04-09T08:36:55;94745.75;;;24.18;36.45
6090;BME280;3073;42.660;23.316;2023-04-09T08:39:21;94752.28;;;23.31;37.73
6090;BME280;3073;42.660;23.316;2023-04-09T08:41:50;94757.31;;;24.79;35.89
6090;BME280;3073;42.660;23.316;2023-04-09T08:44:17;94751.38;;;26.22;33.91
6090;BME280;3073;42.660;23.316;2023-04-09T08:46:46;94756.97;;;25.75;34.75
6090;BME280;3073;42.660;23.316;2023-04-09T08:49:13;94746.09;;;23.61;36.50
6090;BME280;3073;42.660;23.316;2023-04-09T08:51:44;94752.38;;;24.65;36.06
6090;BME280;3073;42.660;23.316;2023-04-09T08:54:18;94755.13;;;25.88;34.40
6090;BME280;3073;42.660;23.316;2023-04-09T08:56:51;94754.22;;;25.39;34.39
6090;BME280;3073;42.660;23.316;2023-04-09T08:59:18;94748.78;;;25.77;34.64
6090;BME280;3073;42.660;23.316;2023-04-09T09:01:45;94751.38;;;26.22;34.05
6090;BME280;3073;42.660;23.316;2023-04-09T09:04:17;94746.88;;;25.20;35.15
6090;BME280;3073;42.660;23.316;2023-04-09T09:06:43;94745.06;;;25.66;34.63
6090;BME280;3073;42.660;23.316;2023-04-09T09:09:12;94751.09;;;26.02;33.59
6090;BME280;3073;42.660;23.316;2023-04-09T09:11:42;94746.97;;;26.13;34.22
6090;BME280;3073;42.660;23.316;2023-04-09T09:14:09;94744.38;;;25.12;34.70
6090;BME280;3073;42.660;23.316;2023-04-09T09:16:39;94735.63;;;25.85;33.90
6090;BME280;3073;42.660;23.316;2023-04-09T09:19:08;94738.69;;;26.11;33.24
6090;BME280;3073;42.660;23.316;2023-04-09T09:21:35;94738.75;;;26.63;32.97
6090;BME280;3073;42.660;23.316;2023-04-09T09:24:15;94736.28;;;26.43;32.67
6090;BME280;3073;42.660;23.316;2023-04-09T09:26:43;94732.16;;;27.81;31.94
6090;BME280;3073;42.660;23.316;2023-04-09T09:29:10;94735.50;;;24.63;34.40
6090;BME280;3073;42.660;23.316;2023-04-09T09:31:45;94736.81;;;25.31;33.32
6090;BME280;3073;42.660;23.316;2023-04-09T09:34:13;94722.69;;;26.25;33.21
6090;BME280;3073;42.660;23.316;2023-04-09T09:36:41;94726.53;;;27.07;32.13
6090;BME280;3073;42.660;23.316;2023-04-09T09:39:08;94726.16;;;28.11;30.88
6090;BME280;3073;42.660;23.316;2023-04-09T09:41:36;94731.22;;;27.73;31.11
6090;BME280;3073;42.660;23.316;2023-04-09T09:44:05;94722.09;;;27.24;31.43
6090;BME280;3073;42.660;23.316;2023-04-09T09:46:34;94726.56;;;28.64;30.51
6090;BME280;3073;42.660;23.316;2023-04-09T09:49:01;94724.28;;;28.28;30.34
6090;BME280;3073;42.660;23.316;2023-04-09T09:51:30;94722.19;;;28.02;30.37
6090;BME280;3073;42.660;23.316;2023-04-09T09:53:58;94723.22;;;28.48;29.17
6090;BME280;3073;42.660;23.316;2023-04-09T09:56:29;94721.78;;;25.97;31.56
6090;BME280;3073;42.660;23.316;2023-04-09T09:59:06;94723.66;;;27.12;31.12
6090;BME280;3073;42.660;23.316;2023-04-09T10:01:36;94718.88;;;27.58;30.83
6090;BME280;3073;42.660;23.316;2023-04-09T10:04:05;94714.31;;;28.18;29.83
6090;BME280;3073;42.660;23.316;2023-04-09T10:06:33;94714.50;;;26.27;31.30
6090;BME280;3073;42.660;23.316;2023-04-09T10:09:03;94703.50;;;26.73;30.63
6090;BME280;3073;42.660;23.316;2023-04-09T10:11:32;94703.34;;;27.22;30.29
6090;BME280;3073;42.660;23.316;2023-04-09T10:14:01;94701.22;;;28.37;29.48
6090;BME280;3073;42.660;23.316;2023-04-09T10:16:30;94711.69;;;27.11;30.29
6090;BME280;3073;42.660;23.316;2023-04-09T10:18:58;94705.66;;;28.01;29.50
6090;BME280;3073;42.660;23.316;2023-04-09T10:21:32;94705.75;;;27.74;29.84
6090;BME280;3073;42.660;23.316;2023-04-09T10:24:02;94685.78;;;26.42;31.29
6090;BME280;3073;42.660;23.316;2023-04-09T10:26:32;94698.59;;;26.20;30.96
6090;BME280;3073;42.660;23.316;2023-04-09T10:29:07;94697.47;;;25.72;31.00
6090;BME280;3073;42.660;23.316;2023-04-09T10:31:50;94686.34;;;25.51;32.02
6090;BME280;3073;42.660;23.316;2023-04-09T10:34:20;94690.47;;;26.49;31.04
6090;BME280;3073;42.660;23.316;2023-04-09T10:36:51;94692.56;;;27.70;29.90
6090;BME280;3073;42.660;23.316;2023-04-09T10:39:19;94697.53;;;25.06;30.88
6090;BME280;3073;42.660;23.316;2023-04-09T10:41:47;94686.81;;;28.11;29.71
6090;BME280;3073;42.660;23.316;2023-04-09T10:44:21;94676.66;;;25.06;31.81
6090;BME280;3073;42.660;23.316;2023-04-09T10:46:51;94681.22;;;23.22;33.75
6090;BME280;3073;42.660;23.316;2023-04-09T10:49:22;94682.31;;;26.78;31.03
6090;BME280;3073;42.660;23.316;2023-04-09T10:51:51;94677.00;;;25.05;31.74
6090;BME280;3073;42.660;23.316;2023-04-09T10:54:43;94670.84;;;26.55;31.17
6090;BME280;3073;42.660;23.316;2023-04-09T10:57:12;94666.56;;;24.64;32.93
6090;BME280;3073;42.660;23.316;2023-04-09T10:59:41;94665.28;;;24.49;32.83
6090;BME280;3073;42.660;23.316;2023-04-09T11:02:40;94656.34;;;26.73;31.77
6090;BME280;3073;42.660;23.316;2023-04-09T11:05:17;94647.84;;;26.76;30.74
6090;BME280;3073;42.660;23.316;2023-04-09T11:07:50;94654.84;;;27.00;30.47
6090;BME280;3073;42.660;23.316;2023-04-09T11:10:19;94659.22;;;28.37;29.23
6090;BME280;3073;42.660;23.316;2023-04-09T11:12:47;94653.69;;;28.61;29.09
6090;BME280;3073;42.660;23.316;2023-04-09T11:15:15;94653.47;;;27.81;29.37
6090;BME280;3073;42.660;23.316;2023-04-09T11:17:44;94652.72;;;27.80;29.58
6090;BME280;3073;42.660;23.316;2023-04-09T11:20:12;94652.53;;;27.42;29.91
6090;BME280;3073;42.660;23.316;2023-04-09T11:22:39;94654.00;;;26.68;30.64
6090;BME280;3073;42.660;23.316;2023-04-09T11:25:06;94653.19;;;26.52;31.04
6090;BME280;3073;42.660;23.316;2023-04-09T11:27:36;94659.03;;;28.10;30.54
6090;BME280;3073;42.660;23.316;2023-04-09T11:30:04;94649.91;;;26.55;31.82
6090;BME280;3073;42.660;23.316;2023-04-09T11:32:31;94656.03;;;27.46;31.30
6090;BME280;3073;42.660;23.316;2023-04-09T11:35:00;94647.72;;;23.87;33.16
6090;BME280;3073;42.660;23.316;2023-04-09T11:37:28;94650.13;;;25.17;32.97
6090;BME280;3073;42.660;23.316;2023-04-09T11:39:55;94646.31;;;26.75;32.25
6090;BME280;3073;42.660;23.316;2023-04-09T11:42:23;94638.31;;;26.04;31.48
6090;BME280;3073;42.660;23.316;2023-04-09T11:44:52;94640.59;;;24.88;32.59
6090;BME280;3073;42.660;23.316;2023-04-09T11:47:20;94635.34;;;24.55;33.27
6090;BME280;3073;42.660;23.316;2023-04-09T11:49:47;94644.13;;;25.04;32.52
6090;BME280;3073;42.660;23.316;2023-04-09T11:52:15;94637.28;;;26.33;31.80
6090;BME280;3073;42.660;23.316;2023-04-09T11:54:47;94641.25;;;23.64;33.80
6090;BME280;3073;42.660;23.316;2023-04-09T11:57:14;94637.66;;;22.50;36.05
6090;BME280;3073;42.660;23.316;2023-04-09T11:59:41;94633.56;;;23.30;35.44
6090;BME280;3073;42.660;23.316;2023-04-09T12:02:08;94631.50;;;22.89;35.90
6090;BME280;3073;42.660;23.316;2023-04-09T12:04:35;94626.19;;;22.34;37.05
6090;BME280;3073;42.660;23.316;2023-04-09T12:07:02;94630.81;;;22.71;37.82
6090;BME280;3073;42.660;23.316;2023-04-09T12:09:45;94633.38;;;23.43;36.78
6090;BME280;3073;42.660;23.316;2023-04-09T12:12:17;94635.97;;;22.63;37.01
6090;BME280;3073;42.660;23.316;2023-04-09T12:14:44;94640.09;;;22.12;38.01
6090;BME280;3073;42.660;23.316;2023-04-09T12:17:12;94627.88;;;22.21;39.02
6090;BME280;3073;42.660;23.316;2023-04-09T12:19:39;94630.94;;;22.66;39.34
6090;BME280;3073;42.660;23.316;2023-04-09T12:22:06;94623.81;;;24.15;38.60
6090;BME280;3073;42.660;23.316;2023-04-09T12:24:34;94620.00;;;22.98;39.64
6090;BME280;3073;42.660;23.316;2023-04-09T12:27:01;94623.13;;;25.13;37.48
6090;BME280;3073;42.660;23.316;2023-04-09T12:29:28;94616.41;;;23.67;36.35
6090;BME280;3073;42.660;23.316;2023-04-09T12:31:56;94616.56;;;24.62;36.51
6090;BME280;3073;42.660;23.316;2023-04-09T12:34:23;94617.78;;;24.43;35.68
6090;BME280;3073;42.660;23.316;2023-04-09T12:36:51;94626.03;;;22.65;36.91
6090;BME280;3073;42.660;23.316;2023-04-09T12:39:18;94609.41;;;24.71;35.23
6090;BME280;3073;42.660;23.316;2023-04-09T12:41:46;94611.19;;;22.74;36.69
6090;BME280;3073;42.660;23.316;2023-04-09T12:44:13;94612.56;;;22.54;36.78
6090;BME280;3073;42.660;23.316;2023-04-09T12:46:40;94604.91;;;23.30;35.56
6090;BME280;3073;42.660;23.316;2023-04-09T12:49:07;94604.75;;;22.02;36.86
6090;BME280;3073;42.660;23.316;2023-04-09T12:51:34;94616.69;;;21.95;36.45
6090;BME280;3073;42.660;23.316;2023-04-09T12:54:01;94595.41;;;22.79;35.23
6090;BME280;3073;42.660;23.316;2023-04-09T12:56:28;94593.94;;;23.16;35.68
6090;BME280;3073;42.660;23.316;2023-04-09T12:58:59;94594.28;;;24.43;33.37
6090;BME280;3073;42.660;23.316;2023-04-09T13:01:26;94610.41;;;22.56;35.70
6090;BME280;3073;42.660;23.316;2023-04-09T13:03:53;94595.75;;;22.43;36.07
6090;BME280;3073;42.660;23.316;2023-04-09T13:06:19;94597.06;;;23.47;35.35
6090;BME280;3073;42.660;23.316;2023-04-09T13:08:47;94596.06;;;22.50;36.73
6090;BME280;3073;42.660;23.316;2023-04-09T13:11:14;94596.22;;;22.11;36.48
6090;BME280;3073;42.660;23.316;2023-04-09T13:13:41;94595.72;;;23.41;34.12
6090;BME280;3073;42.660;23.316;2023-04-09T13:16:13;94585.03;;;24.79;32.23